Time;durP1;ratioP1;P1;durP2;ratioP2;P2;SDS_P1;SDS_P2;PMS_P1;PMS_P2;Temp;Humidity;BMP_temperature;BMP_pressure;BME280_temperature;BME280_humidity;BME280_pressure;Samples;Min_cycle;Max_cycle;Signal;HPM_P1;HPM_P2
2022/09/15 00:07:15;;;;;;;1.40;0.70;;;21.70;55.80;;;;;;20633573;28;20132;-71
2022/09/15 00:17:15;;;;;;;1.30;0.60;;;21.80;55.90;;;;;;20650026;28;20504;-73
2022/09/15 00:27:16;;;;;;;2.15;0.70;;;21.70;55.90;;;;;;20648019;28;20046;-71
2022/09/15 00:37:17;;;;;;;1.35;0.60;;;21.70;55.90;;;;;;20647382;28;20042;-71
2022/09/15 00:47:19;;;;;;;2.38;0.73;;;21.70;55.90;;;;;;20646968;28;20081;-71
2022/09/15 00:57:35;;;;;;;3.28;0.80;;;21.70;55.90;;;;;;20661872;28;20046;-71
2022/09/15 01:07:41;;;;;;;;;;;21.70;55.90;;;;;;20645244;28;20714;-72
2022/09/15 01:17:50;;;;;;;4.47;0.80;;;21.70;55.80;;;;;;20644405;28;19917;-71
2022/09/15 01:28:03;;;;;;;2.88;0.65;;;21.70;55.80;;;;;;20628489;28;20117;-72
2022/09/15 01:38:06;;;;;;;2.72;0.80;;;21.60;55.70;;;;;;21038844;22;20404;-72
2022/09/15 01:48:07;;;;;;;1.40;0.65;;;21.60;55.70;;;;;;20578175;28;20645;-71
2022/09/15 01:58:08;;;;;;;2.88;0.73;;;21.70;55.80;;;;;;20562566;28;20185;-72
2022/09/15 02:08:24;;;;;;;1.05;0.55;;;21.60;55.70;;;;;;20561937;28;20130;-73
2022/09/15 02:18:54;;;;;;;3.10;0.80;;;21.60;55.70;;;;;;20561411;28;20125;-72
2022/09/15 02:28:55;;;;;;;1.02;0.52;;;21.60;55.60;;;;;;20564072;28;20449;-72
2022/09/15 02:39:00;;;;;;;0.75;0.55;;;21.60;55.60;;;;;;20560968;28;20102;-71
2022/09/15 02:49:00;;;;;;;4.15;0.60;;;21.60;55.60;;;;;;20576422;28;20110;-71
2022/09/15 02:59:01;;;;;;;3.42;0.73;;;21.60;55.60;;;;;;20569638;28;20081;-71
2022/09/15 03:09:05;;;;;;;2.25;0.88;;;21.60;56.20;;;;;;20590296;28;20027;-71
2022/09/15 03:19:05;;;;;;;2.65;0.55;;;21.60;55.50;;;;;;20574118;28;20122;-71
2022/09/15 03:29:06;;;;;;;2.85;0.57;;;21.60;55.50;;;;;;20572600;28;20106;-71
2022/09/15 03:39:06;;;;;;;2.03;0.70;;;21.50;55.40;;;;;;20572141;28;20038;-70
2022/09/15 03:49:07;;;;;;;4.53;1.00;;;21.60;55.40;;;;;;20587284;28;20126;-73
2022/09/15 03:59:08;;;;;;;2.22;0.90;;;21.50;55.40;;;;;;20556033;28;20031;-71
2022/09/15 04:09:09;;;;;;;1.90;0.65;;;21.50;55.40;;;;;;20585291;28;20062;-73
2022/09/15 04:19:09;;;;;;;0.98;0.65;;;21.50;55.30;;;;;;20585685;28;20057;-72
2022/09/15 04:29:12;;;;;;;1.08;0.70;;;21.50;55.30;;;;;;20619914;28;20033;-74
2022/09/15 04:39:13;;;;;;;2.45;0.93;;;21.50;55.30;;;;;;20616165;28;20042;-72
2022/09/15 04:49:13;;;;;;;1.60;0.80;;;21.50;55.20;;;;;;20647089;28;20049;-70
2022/09/15 04:59:15;;;;;;;3.25;1.05;;;21.50;55.20;;;;;;20627090;28;20034;-73
2022/09/15 05:09:15;;;;;;;1.65;0.80;;;21.50;55.20;;;;;;20628023;28;20038;-73
2022/09/15 05:19:16;;;;;;;2.67;0.80;;;21.50;55.20;;;;;;20629243;28;20466;-76
2022/09/15 05:29:17;;;;;;;1.52;0.90;;;21.50;55.20;;;;;;20630760;28;20033;-74
2022/09/15 05:39:17;;;;;;;3.42;0.85;;;21.50;55.20;;;;;;20739981;28;20050;-74
2022/09/15 05:49:18;;;;;;;3.13;0.77;;;21.50;55.20;;;;;;20662993;28;20113;-72
2022/09/15 05:59:18;;;;;;;1.75;1.35;;;21.40;55.20;;;;;;20578575;28;20049;-73
2022/09/15 06:09:19;;;;;;;1.55;0.90;;;21.40;55.20;;;;;;20697720;28;20108;-71
2022/09/15 06:19:19;;;;;;;5.23;1.53;;;21.40;55.30;;;;;;20635386;28;20493;-71
2022/09/15 06:29:20;;;;;;;1.77;0.60;;;21.40;55.30;;;;;;20628264;28;20301;-74
2022/09/15 06:39:21;;;;;;;2.53;0.95;;;21.40;55.30;;;;;;20641224;28;20030;-72
2022/09/15 06:49:21;;;;;;;1.15;0.70;;;21.40;55.40;;;;;;20640454;28;20062;-72
2022/09/15 06:59:23;;;;;;;2.08;0.85;;;21.40;55.30;;;;;;20638987;28;20047;-73
2022/09/15 07:09:23;;;;;;;3.60;1.00;;;21.40;55.40;;;;;;20622324;28;20118;-72
2022/09/15 07:19:24;;;;;;;2.58;0.70;;;21.40;55.50;;;;;;20652446;28;20124;-72
2022/09/15 07:29:25;;;;;;;1.52;0.70;;;21.40;55.60;;;;;;20697037;28;20038;-74
2022/09/15 07:39:25;;;;;;;2.37;0.93;;;21.40;55.60;;;;;;20699463;28;20069;-73
2022/09/15 07:49:26;;;;;;;2.10;0.80;;;21.40;55.70;;;;;;20715851;28;20064;-74
2022/09/15 07:59:26;;;;;;;3.97;1.20;;;21.30;55.80;;;;;;20714959;28;20128;-72
2022/09/15 08:09:27;;;;;;;1.35;0.50;;;21.40;56.10;;;;;;20712152;28;20438;-73
2022/09/15 08:19:28;;;;;;;2.17;0.77;;;21.30;56.20;;;;;;20714115;28;20048;-73
2022/09/15 08:29:28;;;;;;;2.90;0.70;;;21.30;56.30;;;;;;20708527;28;20038;-72
2022/09/15 08:39:29;;;;;;;2.15;1.30;;;21.30;56.30;;;;;;20632855;28;20053;-73
2022/09/15 08:49:38;;;;;;;3.10;0.85;;;21.30;56.30;;;;;;20646180;28;20030;-73
2022/09/15 08:59:38;;;;;;;1.42;0.40;;;21.30;56.40;;;;;;20627449;28;20046;-73
2022/09/15 09:09:50;;;;;;;2.75;0.70;;;21.30;56.40;;;;;;20549476;28;20493;-73
2022/09/15 09:20:13;;;;;;;3.97;0.80;;;21.30;56.40;;;;;;20550517;28;20074;-73
2022/09/15 09:30:16;;;;;;;1.05;0.40;;;21.30;56.40;;;;;;20630232;28;20037;-73
2022/09/15 09:40:16;;;;;;;1.70;0.60;;;21.30;56.40;;;;;;20659314;28;20130;-74
2022/09/15 09:50:30;;;;;;;0.73;0.50;;;21.30;56.30;;;;;;20585254;28;20046;-74
2022/09/15 10:00:32;;;;;;;2.10;0.47;;;21.30;56.10;;;;;;20639965;28;20047;-76
2022/09/15 10:10:34;;;;;;;1.10;0.52;;;21.40;55.90;;;;;;20623556;28;20126;-74
2022/09/15 10:20:46;;;;;;;1.60;0.50;;;21.40;55.70;;;;;;20569870;28;20477;-73
2022/09/15 10:31:01;;;;;;;1.75;0.65;;;21.40;55.50;;;;;;20589724;28;20069;-73
2022/09/15 10:41:20;;;;;;;3.03;0.50;;;21.50;55.30;;;;;;20675573;28;20046;-72
2022/09/15 10:51:36;;;;;;;3.50;0.40;;;21.50;55.10;;;;;;20730192;28;20042;-76
2022/09/15 11:02:04;;;;;;;1.83;0.80;;;21.50;54.80;;;;;;20722692;28;20408;-76
2022/09/15 11:12:21;;;;;;;1.33;0.80;;;21.50;54.50;;;;;;20669590;28;20042;-75
2022/09/15 11:22:32;;;;;;;1.00;0.38;;;21.50;54.30;;;;;;20693833;28;20038;-75
2022/09/15 11:32:45;;;;;;;1.25;0.30;;;21.50;54.10;;;;;;20593747;28;20042;-74
2022/09/15 11:42:51;;;;;;;1.13;0.40;;;21.50;54.10;;;;;;20590622;28;20045;-74
2022/09/15 11:53:11;;;;;;;1.08;0.30;;;21.50;54.10;;;;;;20622678;28;20037;-75
2022/09/15 12:03:19;;;;;;;0.90;0.40;;;21.50;54.00;;;;;;20611797;28;20069;-74
2022/09/15 12:13:22;;;;;;;3.60;0.60;;;21.50;54.10;;;;;;20642702;28;20041;-75
2022/09/15 12:23:28;;;;;;;0.95;0.47;;;21.50;54.20;;;;;;20633293;28;20088;-81
2022/09/15 12:33:45;;;;;;;1.80;0.50;;;21.50;54.30;;;;;;20620187;28;20030;-78
2022/09/15 12:44:01;;;;;;;0.25;0.22;;;21.50;54.40;;;;;;20688558;28;20038;-80
2022/09/15 12:54:03;;;;;;;0.82;0.20;;;21.40;54.40;;;;;;20701689;28;20472;-78
2022/09/15 13:04:04;;;;;;;0.80;0.35;;;21.40;54.40;;;;;;20679758;28;20042;-78
2022/09/15 13:14:07;;;;;;;1.30;0.40;;;21.40;54.40;;;;;;20585211;28;20114;-78
2022/09/15 13:24:21;;;;;;;2.35;0.35;;;21.40;54.10;;;;;;20610558;28;20092;-79
2022/09/15 13:34:44;;;;;;;1.00;0.40;;;21.50;53.70;;;;;;20630396;28;20125;-78
2022/09/15 13:45:04;;;;;;;1.70;0.40;;;21.60;53.30;;;;;;20627495;28;20381;-76
2022/09/15 13:55:16;;;;;;;0.82;0.32;;;21.70;52.90;;;;;;20660664;28;20030;-79
2022/09/15 14:05:16;;;;;;;0.52;0.13;;;21.80;52.70;;;;;;20627001;28;20481;-75
2022/09/15 14:15:21;;;;;;;0.88;0.40;;;21.80;52.30;;;;;;20626346;28;20113;-80
2022/09/15 14:25:22;;;;;;;3.45;1.15;;;22.00;52.10;;;;;;20612779;28;20034;-78
2022/09/15 14:35:24;;;;;;;1.30;0.20;;;22.00;51.90;;;;;;20628647;28;20092;-80
2022/09/15 14:45:39;;;;;;;2.38;0.60;;;22.00;51.90;;;;;;20611270;28;20057;-81
2022/09/15 14:55:52;;;;;;;2.78;0.50;;;22.00;51.80;;;;;;20604804;28;20049;-76
2022/09/15 15:05:58;;;;;;;2.08;0.50;;;22.00;51.80;;;;;;20614287;28;20050;-80
2022/09/15 15:15:59;;;;;;;2.92;0.25;;;22.10;51.70;;;;;;20576712;28;20037;-77
2022/09/15 15:26:22;;;;;;;0.60;0.30;;;22.10;51.70;;;;;;20642673;28;20046;-77
2022/09/15 15:36:23;;;;;;;0.17;0.17;;;22.00;51.70;;;;;;20662374;28;20131;-78
2022/09/15 15:47:00;;;;;;;1.00;0.32;;;22.00;51.80;;;;;;20650416;28;20197;-76
2022/09/15 15:57:22;;;;;;;0.90;0.20;;;22.00;51.80;;;;;;20685937;28;20044;-75
2022/09/15 16:07:23;;;;;;;0.55;0.30;;;22.00;51.80;;;;;;20741681;28;20100;-72
2022/09/15 16:17:23;;;;;;;2.90;0.40;;;22.00;51.90;;;;;;20573791;28;20110;-75
2022/09/15 16:27:24;;;;;;;0.30;0.20;;;22.00;52.10;;;;;;20570195;28;20305;-78
2022/09/15 16:37:24;;;;;;;0.50;0.30;;;22.00;52.30;;;;;;20573641;28;20042;-78
2022/09/15 16:47:26;;;;;;;0.75;0.40;;;21.90;52.50;;;;;;20583044;28;20046;-78
2022/09/15 16:57:27;;;;;;;1.10;0.30;;;21.90;52.70;;;;;;20634903;28;20543;-78
2022/09/15 17:07:27;;;;;;;2.53;0.40;;;21.90;52.80;;;;;;20564510;28;20038;-76
2022/09/15 17:17:28;;;;;;;0.60;0.35;;;21.90;52.80;;;;;;20660076;28;20111;-75
2022/09/15 17:27:29;;;;;;;1.20;0.38;;;21.90;52.80;;;;;;20584513;28;20046;-75
2022/09/15 17:37:29;;;;;;;1.58;0.50;;;21.80;52.80;;;;;;20603834;28;20046;-75
2022/09/15 17:47:31;;;;;;;1.20;0.30;;;21.80;52.90;;;;;;20582256;28;20042;-74
2022/09/15 17:57:32;;;;;;;2.50;0.57;;;21.80;52.90;;;;;;20571296;28;20453;-74
2022/09/15 18:07:32;;;;;;;1.35;0.30;;;21.80;53.00;;;;;;20561265;28;20051;-74
2022/09/15 18:17:33;;;;;;;1.70;0.30;;;21.70;53.00;;;;;;20628699;28;20145;-75
2022/09/15 18:27:33;;;;;;;1.58;0.40;;;21.70;53.10;;;;;;20615745;28;20121;-75
2022/09/15 18:37:37;;;;;;;0.45;0.30;;;21.70;53.10;;;;;;20624796;28;20045;-76
2022/09/15 18:47:39;;;;;;;1.30;0.30;;;21.70;53.20;;;;;;20575591;28;20370;-74
2022/09/15 18:57:40;;;;;;;2.92;0.40;;;21.70;53.40;;;;;;20591194;28;20117;-75
2022/09/15 19:07:42;;;;;;;0.45;0.30;;;21.70;53.40;;;;;;20591242;28;20577;-75
2022/09/15 19:17:42;;;;;;;0.75;0.30;;;21.60;53.50;;;;;;20665203;28;20038;-76
2022/09/15 19:27:43;;;;;;;1.73;0.60;;;21.60;53.60;;;;;;20733043;28;20504;-74
2022/09/15 19:37:44;;;;;;;0.73;0.45;;;21.60;53.70;;;;;;20606897;28;20383;-78
2022/09/15 19:47:44;;;;;;;2.30;0.65;;;21.60;53.80;;;;;;20634111;28;20042;-75
2022/09/15 19:57:45;;;;;;;0.57;0.40;;;21.50;53.90;;;;;;20599433;28;20038;-75
2022/09/15 20:07:46;;;;;;;2.28;0.50;;;21.50;54.00;;;;;;20580162;28;20041;-76
2022/09/15 20:17:47;;;;;;;0.20;0.20;;;21.50;54.00;;;;;;20567536;28;20053;-74
2022/09/15 20:27:48;;;;;;;1.00;0.40;;;21.50;54.10;;;;;;20552321;28;20129;-74
2022/09/15 20:37:48;;;;;;;0.73;0.35;;;21.40;54.10;;;;;;20551733;28;20054;-75
2022/09/15 20:47:49;;;;;;;0.45;0.30;;;21.40;54.20;;;;;;20566435;28;20046;-75
2022/09/15 20:57:50;;;;;;;0.65;0.40;;;21.40;54.20;;;;;;20566615;28;20045;-74
2022/09/15 21:07:50;;;;;;;0.43;0.30;;;21.40;54.30;;;;;;20565582;28;20527;-75
2022/09/15 21:17:51;;;;;;;0.50;0.30;;;21.40;54.30;;;;;;20566208;28;20050;-75
2022/09/15 21:27:52;;;;;;;2.13;0.50;;;21.30;54.30;;;;;;20548722;28;20732;-74
2022/09/15 21:37:52;;;;;;;1.95;0.45;;;21.30;54.30;;;;;;20547777;28;20047;-75
2022/09/15 21:47:53;;;;;;;0.57;0.30;;;21.40;54.40;;;;;;20562981;28;20050;-75
2022/09/15 21:57:53;;;;;;;0.80;0.32;;;21.30;54.40;;;;;;20562375;28;20702;-74
2022/09/15 22:07:54;;;;;;;0.82;0.30;;;21.30;54.50;;;;;;20545724;28;20133;-74
2022/09/15 22:17:55;;;;;;;0.68;0.35;;;21.30;54.40;;;;;;20546406;28;20027;-74
2022/09/15 22:27:55;;;;;;;0.17;0.10;;;21.30;54.40;;;;;;20561834;28;20066;-74
2022/09/15 22:37:56;;;;;;;0.60;0.30;;;21.30;54.50;;;;;;20546840;28;20066;-75
2022/09/15 22:47:57;;;;;;;0.70;0.30;;;21.20;54.40;;;;;;20566122;28;20041;-74
2022/09/15 22:57:57;;;;;;;1.05;0.50;;;21.20;54.40;;;;;;20692379;28;20034;-75
2022/09/15 23:07:58;;;;;;;0.98;0.38;;;21.20;54.40;;;;;;20688838;28;20129;-74
2022/09/15 23:17:59;;;;;;;0.60;0.30;;;21.20;54.40;;;;;;20718202;28;20033;-76
2022/09/15 23:27:59;;;;;;;1.38;0.30;;;21.20;54.40;;;;;;20703093;28;20124;-75
2022/09/15 23:38:00;;;;;;;1.20;0.40;;;21.20;54.40;;;;;;20736341;28;20038;-74
2022/09/15 23:48:03;;;;;;;0.40;0.40;;;21.20;54.40;;;;;;20716846;28;20049;-74
2022/09/15 23:58:03;;;;;;;1.70;0.38;;;21.20;54.40;;;;;;20700445;28;20197;-73
